sensor_id;sensor_type;location;lat;lon;timestamp;temperature;humidity
19966;DHT22;10144;50.874;4.762;2023-03-14T00:00:37;11.20;99.90
19966;DHT22;10144;50.874;4.762;2023-03-14T00:03:03;11.30;99.90
19966;DHT22;10144;50.874;4.762;2023-03-14T00:05:30;11.50;99.90
19966;DHT22;10144;50.874;4.762;2023-03-14T00:07:56;11.60;99.90
19966;DHT22;10144;50.874;4.762;2023-03-14T00:10:21;11.60;99.90
19966;DHT22;10144;50.874;4.762;2023-03-14T00:12:47;11.50;99.90
19966;DHT22;10144;50.874;4.762;2023-03-14T00:15:13;11.50;99.90
19966;DHT22;10144;50.874;4.762;2023-03-14T00:17:39;11.50;99.90
19966;DHT22;10144;50.874;4.762;2023-03-14T00:20:06;11.50;99.90
19966;DHT22;10144;50.874;4.762;2023-03-14T00:22:35;11.50;99.90
19966;DHT22;10144;50.874;4.762;2023-03-14T00:25:02;11.50;99.90
19966;DHT22;10144;50.874;4.762;2023-03-14T00:27:28;11.50;99.90
19966;DHT22;10144;50.874;4.762;2023-03-14T00:29:54;11.40;99.90
19966;DHT22;10144;50.874;4.762;2023-03-14T00:32:19;11.20;99.90
19966;DHT22;10144;50.874;4.762;2023-03-14T00:34:45;11.10;99.90
19966;DHT22;10144;50.874;4.762;2023-03-14T00:37:10;11.20;99.90
19966;DHT22;10144;50.874;4.762;2023-03-14T00:39:36;11.20;99.90
19966;DHT22;10144;50.874;4.762;2023-03-14T00:42:02;11.20;99.90
19966;DHT22;10144;50.874;4.762;2023-03-14T00:44:27;11.30;99.90
19966;DHT22;10144;50.874;4.762;2023-03-14T00:46:53;11.30;99.90
19966;DHT22;10144;50.874;4.762;2023-03-14T00:49:19;11.20;99.90
19966;DHT22;10144;50.874;4.762;2023-03-14T00:51:44;11.10;99.90
19966;DHT22;10144;50.874;4.762;2023-03-14T00:54:10;11.20;99.90
19966;DHT22;10144;50.874;4.762;2023-03-14T00:56:35;11.20;99.90
19966;DHT22;10144;50.874;4.762;2023-03-14T00:59:01;11.20;99.90
19966;DHT22;10144;50.874;4.762;2023-03-14T01:01:27;11.20;99.90
19966;DHT22;10144;50.874;4.762;2023-03-14T01:03:54;11.30;99.90
19966;DHT22;10144;50.874;4.762;2023-03-14T01:06:22;11.30;99.90
19966;DHT22;10144;50.874;4.762;2023-03-14T01:08:49;11.10;99.90
19966;DHT22;10144;50.874;4.762;2023-03-14T01:11:18;11.10;99.90
19966;DHT22;10144;50.874;4.762;2023-03-14T01:13:43;11.10;99.90
19966;DHT22;10144;50.874;4.762;2023-03-14T01:16:11;11.10;99.90
19966;DHT22;10144;50.874;4.762;2023-03-14T01:18:38;11.10;99.90
19966;DHT22;10144;50.874;4.762;2023-03-14T01:21:14;11.20;99.90
19966;DHT22;10144;50.874;4.762;2023-03-14T01:23:40;11.10;99.90
19966;DHT22;10144;50.874;4.762;2023-03-14T01:26:10;11.00;99.90
19966;DHT22;10144;50.874;4.762;2023-03-14T01:28:36;11.10;99.90
19966;DHT22;10144;50.874;4.762;2023-03-14T01:31:07;11.10;99.90
19966;DHT22;10144;50.874;4.762;2023-03-14T01:33:33;10.90;99.90
19966;DHT22;10144;50.874;4.762;2023-03-14T01:35:59;10.90;99.90
19966;DHT22;10144;50.874;4.762;2023-03-14T01:38:28;11.00;99.90
19966;DHT22;10144;50.874;4.762;2023-03-14T01:40:53;11.00;99.90
19966;DHT22;10144;50.874;4.762;2023-03-14T01:43:20;11.00;99.90
19966;DHT22;10144;50.874;4.762;2023-03-14T01:46:14;10.90;99.90
19966;DHT22;10144;50.874;4.762;2023-03-14T01:54:03;10.80;99.90
19966;DHT22;10144;50.874;4.762;2023-03-14T01:56:31;10.80;99.90
19966;DHT22;10144;50.874;4.762;2023-03-14T01:58:58;10.70;99.90
19966;DHT22;10144;50.874;4.762;2023-03-14T02:01:26;10.60;99.90
19966;DHT22;10144;50.874;4.762;2023-03-14T02:03:57;10.60;99.90
19966;DHT22;10144;50.874;4.762;2023-03-14T02:06:39;10.60;99.90
19966;DHT22;10144;50.874;4.762;2023-03-14T02:09:06;10.50;99.90
19966;DHT22;10144;50.874;4.762;2023-03-14T02:11:32;10.50;99.90
19966;DHT22;10144;50.874;4.762;2023-03-14T02:13:59;10.50;99.90
19966;DHT22;10144;50.874;4.762;2023-03-14T02:16:25;10.40;99.90
19966;DHT22;10144;50.874;4.762;2023-03-14T02:18:50;10.20;99.90
19966;DHT22;10144;50.874;4.762;2023-03-14T02:21:38;10.10;99.90
19966;DHT22;10144;50.874;4.762;2023-03-14T02:24:20;10.10;99.90
19966;DHT22;10144;50.874;4.762;2023-03-14T02:27:13;10.10;99.90
19966;DHT22;10144;50.874;4.762;2023-03-14T02:30:05;10.10;99.90
19966;DHT22;10144;50.874;4.762;2023-03-14T02:32:32;10.00;99.90
19966;DHT22;10144;50.874;4.762;2023-03-14T02:35:00;9.80;99.90
19966;DHT22;10144;50.874;4.762;2023-03-14T02:38:00;9.80;99.90
19966;DHT22;10144;50.874;4.762;2023-03-14T02:40:26;9.70;99.90
19966;DHT22;10144;50.874;4.762;2023-03-14T02:42:53;9.60;99.90
19966;DHT22;10144;50.874;4.762;2023-03-14T02:45:25;9.60;99.90
19966;DHT22;10144;50.874;4.762;2023-03-14T02:48:01;9.60;99.90
19966;DHT22;10144;50.874;4.762;2023-03-14T02:50:30;9.70;99.90
19966;DHT22;10144;50.874;4.762;2023-03-14T02:52:58;9.80;99.90
19966;DHT22;10144;50.874;4.762;2023-03-14T02:55:24;9.80;99.90
19966;DHT22;10144;50.874;4.762;2023-03-14T02:57:52;9.80;99.90
19966;DHT22;10144;50.874;4.762;2023-03-14T03:00:18;9.70;99.90
19966;DHT22;10144;50.874;4.762;2023-03-14T03:02:45;9.60;99.90
19966;DHT22;10144;50.874;4.762;2023-03-14T03:05:11;9.70;99.90
19966;DHT22;10144;50.874;4.762;2023-03-14T03:07:36;9.70;99.90
19966;DHT22;10144;50.874;4.762;2023-03-14T03:10:03;9.70;99.90
19966;DHT22;10144;50.874;4.762;2023-03-14T03:12:28;9.70;99.90
19966;DHT22;10144;50.874;4.762;2023-03-14T03:14:54;9.80;99.90
19966;DHT22;10144;50.874;4.762;2023-03-14T03:17:20;9.80;99.90
19966;DHT22;10144;50.874;4.762;2023-03-14T03:19:46;9.80;99.90
19966;DHT22;10144;50.874;4.762;2023-03-14T03:22:12;9.80;99.90
19966;DHT22;10144;50.874;4.762;2023-03-14T03:24:38;9.90;99.90
19966;DHT22;10144;50.874;4.762;2023-03-14T03:27:03;9.90;99.90
19966;DHT22;10144;50.874;4.762;2023-03-14T03:29:29;10.00;99.90
19966;DHT22;10144;50.874;4.762;2023-03-14T03:31:55;10.00;99.90
19966;DHT22;10144;50.874;4.762;2023-03-14T03:34:21;9.90;99.90
19966;DHT22;10144;50.874;4.762;2023-03-14T03:36:46;9.90;99.90
19966;DHT22;10144;50.874;4.762;2023-03-14T03:39:12;9.90;99.90
19966;DHT22;10144;50.874;4.762;2023-03-14T03:41:38;9.90;99.90
19966;DHT22;10144;50.874;4.762;2023-03-14T03:44:04;9.90;99.90
19966;DHT22;10144;50.874;4.762;2023-03-14T03:46:31;10.00;99.90
19966;DHT22;10144;50.874;4.762;2023-03-14T03:48:58;9.90;99.90
19966;DHT22;10144;50.874;4.762;2023-03-14T03:51:25;9.90;99.90
19966;DHT22;10144;50.874;4.762;2023-03-14T03:53:51;9.90;99.90
19966;DHT22;10144;50.874;4.762;2023-03-14T03:56:17;10.00;99.90
19966;DHT22;10144;50.874;4.762;2023-03-14T03:58:43;10.00;99.90
19966;DHT22;10144;50.874;4.762;2023-03-14T04:01:09;9.90;99.90
19966;DHT22;10144;50.874;4.762;2023-03-14T04:03:35;9.90;99.90
19966;DHT22;10144;50.874;4.762;2023-03-14T04:06:09;10.00;99.90
19966;DHT22;10144;50.874;4.762;2023-03-14T04:08:35;9.90;99.90
19966;DHT22;10144;50.874;4.762;2023-03-14T04:11:02;9.90;99.90
19966;DHT22;10144;50.874;4.762;2023-03-14T04:13:28;9.90;99.90
19966;DHT22;10144;50.874;4.762;2023-03-14T04:15:54;9.90;99.90
19966;DHT22;10144;50.874;4.762;2023-03-14T04:18:20;9.90;99.90
19966;DHT22;10144;50.874;4.762;2023-03-14T04:20:54;9.90;99.90
19966;DHT22;10144;50.874;4.762;2023-03-14T04:23:21;9.90;99.90
19966;DHT22;10144;50.874;4.762;2023-03-14T04:25:52;9.80;99.90
19966;DHT22;10144;50.874;4.762;2023-03-14T04:28:19;9.90;99.90
19966;DHT22;10144;50.874;4.762;2023-03-14T04:30:44;10.00;99.90
19966;DHT22;10144;50.874;4.762;2023-03-14T04:33:10;9.90;99.90
19966;DHT22;10144;50.874;4.762;2023-03-14T04:35:38;9.90;99.90
19966;DHT22;10144;50.874;4.762;2023-03-14T04:38:04;9.90;99.90
19966;DHT22;10144;50.874;4.762;2023-03-14T04:40:30;9.90;99.90
19966;DHT22;10144;50.874;4.762;2023-03-14T04:42:56;9.90;99.90
19966;DHT22;10144;50.874;4.762;2023-03-14T04:45:22;9.80;99.90
19966;DHT22;10144;50.874;4.762;2023-03-14T04:47:47;10.00;99.90
19966;DHT22;10144;50.874;4.762;2023-03-14T04:50:13;9.90;99.90
19966;DHT22;10144;50.874;4.762;2023-03-14T04:52:39;9.80;99.90
19966;DHT22;10144;50.874;4.762;2023-03-14T04:55:04;9.90;99.90
19966;DHT22;10144;50.874;4.762;2023-03-14T04:57:31;9.90;99.90
19966;DHT22;10144;50.874;4.762;2023-03-14T05:03:03;10.00;99.90
19966;DHT22;10144;50.874;4.762;2023-03-14T05:05:28;10.00;99.90
19966;DHT22;10144;50.874;4.762;2023-03-14T05:07:54;10.00;99.90
19966;DHT22;10144;50.874;4.762;2023-03-14T05:10:20;10.00;99.90
19966;DHT22;10144;50.874;4.762;2023-03-14T05:12:46;10.10;99.90
19966;DHT22;10144;50.874;4.762;2023-03-14T05:15:12;10.00;99.90
19966;DHT22;10144;50.874;4.762;2023-03-14T05:17:38;10.00;99.90
19966;DHT22;10144;50.874;4.762;2023-03-14T05:20:04;10.00;99.90
19966;DHT22;10144;50.874;4.762;2023-03-14T05:22:39;10.00;99.90
19966;DHT22;10144;50.874;4.762;2023-03-14T05:25:06;9.90;99.90
19966;DHT22;10144;50.874;4.762;2023-03-14T05:27:32;9.90;99.90
19966;DHT22;10144;50.874;4.762;2023-03-14T05:29:58;9.90;99.90
19966;DHT22;10144;50.874;4.762;2023-03-14T05:32:23;9.90;99.90
19966;DHT22;10144;50.874;4.762;2023-03-14T05:34:49;10.00;99.90
19966;DHT22;10144;50.874;4.762;2023-03-14T05:37:14;10.10;99.90
19966;DHT22;10144;50.874;4.762;2023-03-14T05:39:40;10.20;99.90
19966;DHT22;10144;50.874;4.762;2023-03-14T05:42:06;10.10;99.90
19966;DHT22;10144;50.874;4.762;2023-03-14T05:44:32;10.00;99.90
19966;DHT22;10144;50.874;4.762;2023-03-14T05:46:58;10.10;99.90
19966;DHT22;10144;50.874;4.762;2023-03-14T05:49:24;10.00;99.90
19966;DHT22;10144;50.874;4.762;2023-03-14T05:51:49;10.10;99.90
19966;DHT22;10144;50.874;4.762;2023-03-14T05:54:15;10.20;99.90
19966;DHT22;10144;50.874;4.762;2023-03-14T05:56:40;10.10;99.90
19966;DHT22;10144;50.874;4.762;2023-03-14T05:59:06;10.10;99.90
19966;DHT22;10144;50.874;4.762;2023-03-14T06:01:34;10.00;99.90
19966;DHT22;10144;50.874;4.762;2023-03-14T06:03:59;10.10;99.90
19966;DHT22;10144;50.874;4.762;2023-03-14T06:06:25;10.10;99.90
19966;DHT22;10144;50.874;4.762;2023-03-14T06:08:50;10.10;99.90
19966;DHT22;10144;50.874;4.762;2023-03-14T06:11:16;10.20;99.90
19966;DHT22;10144;50.874;4.762;2023-03-14T06:13:42;10.20;99.90
19966;DHT22;10144;50.874;4.762;2023-03-14T06:16:08;10.10;99.90
19966;DHT22;10144;50.874;4.762;2023-03-14T06:18:33;10.20;99.90
19966;DHT22;10144;50.874;4.762;2023-03-14T06:20:59;10.20;99.90
19966;DHT22;10144;50.874;4.762;2023-03-14T06:23:24;10.10;99.90
19966;DHT22;10144;50.874;4.762;2023-03-14T06:25:51;10.20;99.90
19966;DHT22;10144;50.874;4.762;2023-03-14T06:28:16;10.20;99.90
19966;DHT22;10144;50.874;4.762;2023-03-14T06:30:42;10.20;99.90
19966;DHT22;10144;50.874;4.762;2023-03-14T06:33:09;10.20;99.90
19966;DHT22;10144;50.874;4.762;2023-03-14T06:35:34;10.10;99.90
19966;DHT22;10144;50.874;4.762;2023-03-14T06:38:00;10.10;99.90
19966;DHT22;10144;50.874;4.762;2023-03-14T06:40:26;10.10;99.90
19966;DHT22;10144;50.874;4.762;2023-03-14T06:42:51;10.10;99.90
19966;DHT22;10144;50.874;4.762;2023-03-14T06:45:17;10.20;99.90
19966;DHT22;10144;50.874;4.762;2023-03-14T06:47:43;10.20;99.90
19966;DHT22;10144;50.874;4.762;2023-03-14T06:50:09;10.20;99.90
19966;DHT22;10144;50.874;4.762;2023-03-14T06:52:36;10.20;99.90
19966;DHT22;10144;50.874;4.762;2023-03-14T06:55:02;10.30;99.90
19966;DHT22;10144;50.874;4.762;2023-03-14T06:57:27;10.30;99.90
19966;DHT22;10144;50.874;4.762;2023-03-14T06:59:53;10.20;99.90
19966;DHT22;10144;50.874;4.762;2023-03-14T07:02:19;10.30;99.90
19966;DHT22;10144;50.874;4.762;2023-03-14T07:04:44;10.40;99.90
19966;DHT22;10144;50.874;4.762;2023-03-14T07:07:10;10.40;99.90
19966;DHT22;10144;50.874;4.762;2023-03-14T07:09:35;10.40;99.90
19966;DHT22;10144;50.874;4.762;2023-03-14T07:12:02;10.40;99.90
19966;DHT22;10144;50.874;4.762;2023-03-14T07:14:28;10.50;99.90
19966;DHT22;10144;50.874;4.762;2023-03-14T07:16:54;10.20;99.90
19966;DHT22;10144;50.874;4.762;2023-03-14T07:19:19;9.70;99.90
19966;DHT22;10144;50.874;4.762;2023-03-14T07:21:45;9.20;99.90
19966;DHT22;10144;50.874;4.762;2023-03-14T07:24:10;8.50;99.90
19966;DHT22;10144;50.874;4.762;2023-03-14T07:26:36;8.00;99.90
19966;DHT22;10144;50.874;4.762;2023-03-14T07:29:02;7.80;99.90
19966;DHT22;10144;50.874;4.762;2023-03-14T07:31:30;7.70;99.90
19966;DHT22;10144;50.874;4.762;2023-03-14T07:33:56;7.40;99.90
19966;DHT22;10144;50.874;4.762;2023-03-14T07:36:21;7.30;99.90
19966;DHT22;10144;50.874;4.762;2023-03-14T07:38:47;7.30;99.90
19966;DHT22;10144;50.874;4.762;2023-03-14T07:41:13;7.20;99.90
19966;DHT22;10144;50.874;4.762;2023-03-14T07:43:39;7.10;99.90
19966;DHT22;10144;50.874;4.762;2023-03-14T07:46:05;7.10;99.90
19966;DHT22;10144;50.874;4.762;2023-03-14T07:48:31;7.00;99.90
19966;DHT22;10144;50.874;4.762;2023-03-14T07:50:57;6.90;99.90
19966;DHT22;10144;50.874;4.762;2023-03-14T07:53:23;6.90;99.90
19966;DHT22;10144;50.874;4.762;2023-03-14T07:55:53;6.80;99.90
19966;DHT22;10144;50.874;4.762;2023-03-14T07:58:22;6.80;99.90
19966;DHT22;10144;50.874;4.762;2023-03-14T08:00:53;6.90;99.90
19966;DHT22;10144;50.874;4.762;2023-03-14T08:03:22;6.90;99.90
19966;DHT22;10144;50.874;4.762;2023-03-14T08:05:48;6.80;99.90
19966;DHT22;10144;50.874;4.762;2023-03-14T08:08:14;6.80;99.90
19966;DHT22;10144;50.874;4.762;2023-03-14T08:10:40;6.90;99.90
19966;DHT22;10144;50.874;4.762;2023-03-14T08:13:06;7.00;99.90
19966;DHT22;10144;50.874;4.762;2023-03-14T08:15:31;7.00;99.90
19966;DHT22;10144;50.874;4.762;2023-03-14T08:17:57;7.10;99.90
19966;DHT22;10144;50.874;4.762;2023-03-14T08:20:27;7.10;99.90
19966;DHT22;10144;50.874;4.762;2023-03-14T08:22:56;7.10;99.90
19966;DHT22;10144;50.874;4.762;2023-03-14T08:25:22;7.10;99.90
19966;DHT22;10144;50.874;4.762;2023-03-14T08:27:48;7.10;99.90
19966;DHT22;10144;50.874;4.762;2023-03-14T08:30:15;7.20;99.90
19966;DHT22;10144;50.874;4.762;2023-03-14T08:32:41;7.20;99.90
19966;DHT22;10144;50.874;4.762;2023-03-14T08:35:08;7.20;99.90
19966;DHT22;10144;50.874;4.762;2023-03-14T08:37:35;7.30;99.90
19966;DHT22;10144;50.874;4.762;2023-03-14T08:40:01;7.40;99.90
19966;DHT22;10144;50.874;4.762;2023-03-14T08:42:32;7.40;99.90
19966;DHT22;10144;50.874;4.762;2023-03-14T08:44:57;7.40;99.90
19966;DHT22;10144;50.874;4.762;2023-03-14T08:47:23;7.40;99.90
19966;DHT22;10144;50.874;4.762;2023-03-14T08:49:49;7.30;99.90
19966;DHT22;10144;50.874;4.762;2023-03-14T08:52:14;7.30;99.90
19966;DHT22;10144;50.874;4.762;2023-03-14T08:54:43;7.20;99.90
19966;DHT22;10144;50.874;4.762;2023-03-14T08:57:09;7.10;99.90
19966;DHT22;10144;50.874;4.762;2023-03-14T08:59:35;7.10;99.90
19966;DHT22;10144;50.874;4.762;2023-03-14T09:02:01;7.00;99.90
19966;DHT22;10144;50.874;4.762;2023-03-14T09:04:29;6.80;99.90
19966;DHT22;10144;50.874;4.762;2023-03-14T09:06:55;6.70;99.90
19966;DHT22;10144;50.874;4.762;2023-03-14T09:09:23;6.70;99.90
19966;DHT22;10144;50.874;4.762;2023-03-14T09:11:49;6.80;99.90
19966;DHT22;10144;50.874;4.762;2023-03-14T09:14:14;7.00;99.90
19966;DHT22;10144;50.874;4.762;2023-03-14T09:16:40;7.00;99.90
19966;DHT22;10144;50.874;4.762;2023-03-14T09:19:06;7.00;99.90
19966;DHT22;10144;50.874;4.762;2023-03-14T09:21:31;7.10;99.90
19966;DHT22;10144;50.874;4.762;2023-03-14T09:23:57;7.10;99.90
19966;DHT22;10144;50.874;4.762;2023-03-14T09:26:23;7.20;99.90
19966;DHT22;10144;50.874;4.762;2023-03-14T09:28:54;7.20;99.90
19966;DHT22;10144;50.874;4.762;2023-03-14T09:31:23;7.10;99.90
19966;DHT22;10144;50.874;4.762;2023-03-14T09:33:49;7.10;99.90
19966;DHT22;10144;50.874;4.762;2023-03-14T09:36:20;7.00;99.90
19966;DHT22;10144;50.874;4.762;2023-03-14T09:38:48;7.00;99.90
19966;DHT22;10144;50.874;4.762;2023-03-14T09:43:48;6.90;99.90
19966;DHT22;10144;50.874;4.762;2023-03-14T09:46:16;6.80;99.90
19966;DHT22;10144;50.874;4.762;2023-03-14T09:48:43;6.90;99.90
19966;DHT22;10144;50.874;4.762;2023-03-14T09:51:17;6.90;99.90
19966;DHT22;10144;50.874;4.762;2023-03-14T09:53:47;6.80;99.90
19966;DHT22;10144;50.874;4.762;2023-03-14T09:56:20;6.80;99.90
19966;DHT22;10144;50.874;4.762;2023-03-14T09:58:51;6.80;99.90
19966;DHT22;10144;50.874;4.762;2023-03-14T10:01:25;6.80;99.90
19966;DHT22;10144;50.874;4.762;2023-03-14T10:03:54;6.90;99.90
19966;DHT22;10144;50.874;4.762;2023-03-14T10:06:23;7.00;99.90
19966;DHT22;10144;50.874;4.762;2023-03-14T10:08:50;7.00;99.90
19966;DHT22;10144;50.874;4.762;2023-03-14T10:11:16;7.20;99.90
19966;DHT22;10144;50.874;4.762;2023-03-14T10:14:03;7.40;99.90
19966;DHT22;10144;50.874;4.762;2023-03-14T10:16:35;7.50;99.90
19966;DHT22;10144;50.874;4.762;2023-03-14T10:19:04;7.60;99.90
19966;DHT22;10144;50.874;4.762;2023-03-14T10:21:31;7.60;99.90
19966;DHT22;10144;50.874;4.762;2023-03-14T10:24:20;7.80;99.90
19966;DHT22;10144;50.874;4.762;2023-03-14T10:26:53;7.60;99.90
19966;DHT22;10144;50.874;4.762;2023-03-14T10:29:20;7.50;99.90
19966;DHT22;10144;50.874;4.762;2023-03-14T10:34:20;7.20;99.90
19966;DHT22;10144;50.874;4.762;2023-03-14T10:36:46;6.90;99.90
19966;DHT22;10144;50.874;4.762;2023-03-14T10:42:05;6.50;99.90
19966;DHT22;10144;50.874;4.762;2023-03-14T10:44:32;6.40;99.90
19966;DHT22;10144;50.874;4.762;2023-03-14T10:47:03;6.40;99.90
19966;DHT22;10144;50.874;4.762;2023-03-14T10:49:35;6.30;99.90
19966;DHT22;10144;50.874;4.762;2023-03-14T10:52:19;6.30;99.90
19966;DHT22;10144;50.874;4.762;2023-03-14T10:54:53;6.20;99.90
19966;DHT22;10144;50.874;4.762;2023-03-14T10:57:20;6.10;99.90
19966;DHT22;10144;50.874;4.762;2023-03-14T10:59:46;6.10;99.90
19966;DHT22;10144;50.874;4.762;2023-03-14T11:05:15;6.40;99.90
19966;DHT22;10144;50.874;4.762;2023-03-14T11:07:44;6.40;99.90
19966;DHT22;10144;50.874;4.762;2023-03-14T11:10:26;6.60;99.90
19966;DHT22;10144;50.874;4.762;2023-03-14T11:15:38;6.40;99.90
19966;DHT22;10144;50.874;4.762;2023-03-14T11:21:21;6.10;99.90
19966;DHT22;10144;50.874;4.762;2023-03-14T11:34:55;5.70;99.90
19966;DHT22;10144;50.874;4.762;2023-03-14T11:37:34;5.70;99.90
19966;DHT22;10144;50.874;4.762;2023-03-14T11:40:22;5.70;99.90
19966;DHT22;10144;50.874;4.762;2023-03-14T11:43:17;5.80;99.90
19966;DHT22;10144;50.874;4.762;2023-03-14T11:45:47;6.10;99.90
19966;DHT22;10144;50.874;4.762;2023-03-14T11:48:36;6.30;99.90
19966;DHT22;10144;50.874;4.762;2023-03-14T11:51:09;6.60;99.90
19966;DHT22;10144;50.874;4.762;2023-03-14T11:56:33;6.90;99.90
19966;DHT22;10144;50.874;4.762;2023-03-14T11:59:19;7.30;99.90
19966;DHT22;10144;50.874;4.762;2023-03-14T12:04:26;7.60;99.90
19966;DHT22;10144;50.874;4.762;2023-03-14T12:07:02;8.10;99.90
19966;DHT22;10144;50.874;4.762;2023-03-14T12:09:29;8.40;99.90
19966;DHT22;10144;50.874;4.762;2023-03-14T12:11:56;8.60;99.90
19966;DHT22;10144;50.874;4.762;2023-03-14T12:16:54;8.60;99.90
19966;DHT22;10144;50.874;4.762;2023-03-14T12:21:49;8.60;99.90
19966;DHT22;10144;50.874;4.762;2023-03-14T12:24:23;8.60;99.90
19966;DHT22;10144;50.874;4.762;2023-03-14T12:26:56;8.50;99.90
19966;DHT22;10144;50.874;4.762;2023-03-14T12:29:22;8.50;99.90
19966;DHT22;10144;50.874;4.762;2023-03-14T12:34:34;8.50;99.90
19966;DHT22;10144;50.874;4.762;2023-03-14T12:39:58;8.30;99.90
19966;DHT22;10144;50.874;4.762;2023-03-14T12:45:25;7.80;99.90
19966;DHT22;10144;50.874;4.762;2023-03-14T12:48:03;7.50;99.90
19966;DHT22;10144;50.874;4.762;2023-03-14T13:00:55;6.00;99.90
19966;DHT22;10144;50.874;4.762;2023-03-14T13:03:25;6.00;99.90
19966;DHT22;10144;50.874;4.762;2023-03-14T13:05:58;5.90;99.90
19966;DHT22;10144;50.874;4.762;2023-03-14T13:11:12;6.00;99.90
19966;DHT22;10144;50.874;4.762;2023-03-14T13:13:45;6.10;99.90
19966;DHT22;10144;50.874;4.762;2023-03-14T13:16:21;6.30;99.90
19966;DHT22;10144;50.874;4.762;2023-03-14T13:18:48;6.60;99.90
19966;DHT22;10144;50.874;4.762;2023-03-14T13:21:22;6.90;99.90
19966;DHT22;10144;50.874;4.762;2023-03-14T13:24:05;7.20;99.90
19966;DHT22;10144;50.874;4.762;2023-03-14T13:26:36;7.50;99.90
19966;DHT22;10144;50.874;4.762;2023-03-14T13:29:15;7.40;99.90
19966;DHT22;10144;50.874;4.762;2023-03-14T13:31:45;7.50;99.90
19966;DHT22;10144;50.874;4.762;2023-03-14T13:34:11;7.60;99.90
19966;DHT22;10144;50.874;4.762;2023-03-14T13:36:37;7.70;99.90
19966;DHT22;10144;50.874;4.762;2023-03-14T13:39:10;7.50;99.90
19966;DHT22;10144;50.874;4.762;2023-03-14T13:41:38;6.90;99.90
19966;DHT22;10144;50.874;4.762;2023-03-14T13:44:07;6.60;99.90
19966;DHT22;10144;50.874;4.762;2023-03-14T13:46:34;6.40;99.90
19966;DHT22;10144;50.874;4.762;2023-03-14T13:49:03;5.90;99.90
19966;DHT22;10144;50.874;4.762;2023-03-14T13:51:31;5.10;99.90
19966;DHT22;10144;50.874;4.762;2023-03-14T13:54:01;4.70;99.90
19966;DHT22;10144;50.874;4.762;2023-03-14T13:56:31;4.70;99.90
19966;DHT22;10144;50.874;4.762;2023-03-14T13:58:57;4.70;99.90
19966;DHT22;10144;50.874;4.762;2023-03-14T14:01:37;4.80;99.90
19966;DHT22;10144;50.874;4.762;2023-03-14T14:07:16;5.40;99.90
19966;DHT22;10144;50.874;4.762;2023-03-14T14:09:51;5.70;99.90
19966;DHT22;10144;50.874;4.762;2023-03-14T14:12:37;5.90;99.90
19966;DHT22;10144;50.874;4.762;2023-03-14T14:15:21;6.10;99.90
19966;DHT22;10144;50.874;4.762;2023-03-14T14:17:51;6.50;99.90
19966;DHT22;10144;50.874;4.762;2023-03-14T14:20:34;6.80;99.90
19966;DHT22;10144;50.874;4.762;2023-03-14T14:23:06;7.20;99.90
19966;DHT22;10144;50.874;4.762;2023-03-14T14:25:36;7.30;99.90
19966;DHT22;10144;50.874;4.762;2023-03-14T14:34:00;7.70;99.90
19966;DHT22;10144;50.874;4.762;2023-03-14T14:36:31;7.70;99.90
19966;DHT22;10144;50.874;4.762;2023-03-14T14:41:41;7.80;99.90
19966;DHT22;10144;50.874;4.762;2023-03-14T14:44:11;8.00;99.90
19966;DHT22;10144;50.874;4.762;2023-03-14T14:46:37;8.10;99.90
19966;DHT22;10144;50.874;4.762;2023-03-14T14:49:14;8.20;99.90
19966;DHT22;10144;50.874;4.762;2023-03-14T14:51:51;8.40;99.90
19966;DHT22;10144;50.874;4.762;2023-03-14T14:54:38;8.30;99.90
19966;DHT22;10144;50.874;4.762;2023-03-14T14:57:23;8.30;99.90
19966;DHT22;10144;50.874;4.762;2023-03-14T14:59:50;8.40;99.90
19966;DHT22;10144;50.874;4.762;2023-03-14T15:04:53;7.90;99.90
19966;DHT22;10144;50.874;4.762;2023-03-14T15:07:18;7.40;99.90
19966;DHT22;10144;50.874;4.762;2023-03-14T15:09:44;7.20;99.90
19966;DHT22;10144;50.874;4.762;2023-03-14T15:12:09;6.40;99.90
19966;DHT22;10144;50.874;4.762;2023-03-14T15:14:35;5.80;99.90
19966;DHT22;10144;50.874;4.762;2023-03-14T15:17:01;5.30;99.90
19966;DHT22;10144;50.874;4.762;2023-03-14T15:19:27;5.10;99.90
19966;DHT22;10144;50.874;4.762;2023-03-14T15:21:54;4.90;99.90
19966;DHT22;10144;50.874;4.762;2023-03-14T15:24:21;4.80;99.90
19966;DHT22;10144;50.874;4.762;2023-03-14T15:26:47;4.70;99.90
19966;DHT22;10144;50.874;4.762;2023-03-14T15:29:12;4.70;99.90
19966;DHT22;10144;50.874;4.762;2023-03-14T15:31:40;4.80;99.90
19966;DHT22;10144;50.874;4.762;2023-03-14T15:34:06;4.90;99.90
19966;DHT22;10144;50.874;4.762;2023-03-14T15:36:33;5.10;99.90
19966;DHT22;10144;50.874;4.762;2023-03-14T15:39:00;5.20;99.90
19966;DHT22;10144;50.874;4.762;2023-03-14T15:41:27;5.60;99.90
19966;DHT22;10144;50.874;4.762;2023-03-14T15:43:53;5.70;99.90
19966;DHT22;10144;50.874;4.762;2023-03-14T15:46:19;5.90;99.90
19966;DHT22;10144;50.874;4.762;2023-03-14T15:48:47;6.20;99.90
19966;DHT22;10144;50.874;4.762;2023-03-14T15:51:14;6.50;99.90
19966;DHT22;10144;50.874;4.762;2023-03-14T15:53:40;6.60;99.90
19966;DHT22;10144;50.874;4.762;2023-03-14T15:56:14;6.80;99.90
19966;DHT22;10144;50.874;4.762;2023-03-14T15:58:43;7.00;99.90
19966;DHT22;10144;50.874;4.762;2023-03-14T16:01:12;6.90;99.90
19966;DHT22;10144;50.874;4.762;2023-03-14T16:03:39;6.80;99.90
19966;DHT22;10144;50.874;4.762;2023-03-14T16:06:05;6.70;99.90
19966;DHT22;10144;50.874;4.762;2023-03-14T16:08:31;6.50;99.90
19966;DHT22;10144;50.874;4.762;2023-03-14T16:11:00;6.50;99.90
19966;DHT22;10144;50.874;4.762;2023-03-14T16:13:26;6.50;99.90
19966;DHT22;10144;50.874;4.762;2023-03-14T16:15:57;6.50;99.90
19966;DHT22;10144;50.874;4.762;2023-03-14T16:18:23;6.40;99.90
19966;DHT22;10144;50.874;4.762;2023-03-14T16:21:16;6.30;99.90
19966;DHT22;10144;50.874;4.762;2023-03-14T16:23:42;6.20;99.90
19966;DHT22;10144;50.874;4.762;2023-03-14T16:26:11;6.20;99.90
19966;DHT22;10144;50.874;4.762;2023-03-14T16:28:37;6.10;99.90
19966;DHT22;10144;50.874;4.762;2023-03-14T16:31:05;5.90;99.90
19966;DHT22;10144;50.874;4.762;2023-03-14T16:33:33;5.80;99.90
19966;DHT22;10144;50.874;4.762;2023-03-14T16:36:01;5.90;99.90
19966;DHT22;10144;50.874;4.762;2023-03-14T16:38:31;5.80;99.90
19966;DHT22;10144;50.874;4.762;2023-03-14T16:41:03;5.80;99.90
19966;DHT22;10144;50.874;4.762;2023-03-14T16:43:29;5.90;99.90
19966;DHT22;10144;50.874;4.762;2023-03-14T16:45:59;5.80;99.90
19966;DHT22;10144;50.874;4.762;2023-03-14T16:48:26;5.70;99.90
19966;DHT22;10144;50.874;4.762;2023-03-14T16:50:52;5.70;99.90
19966;DHT22;10144;50.874;4.762;2023-03-14T16:53:18;5.60;99.90
19966;DHT22;10144;50.874;4.762;2023-03-14T16:55:44;5.60;99.90
19966;DHT22;10144;50.874;4.762;2023-03-14T16:58:10;5.60;99.90
19966;DHT22;10144;50.874;4.762;2023-03-14T17:00:36;5.50;99.90
19966;DHT22;10144;50.874;4.762;2023-03-14T17:03:02;5.50;99.90
19966;DHT22;10144;50.874;4.762;2023-03-14T17:05:28;5.50;99.90
19966;DHT22;10144;50.874;4.762;2023-03-14T17:07:55;5.60;99.90
19966;DHT22;10144;50.874;4.762;2023-03-14T17:10:20;5.80;99.90
19966;DHT22;10144;50.874;4.762;2023-03-14T17:12:46;5.80;99.90